sensor_id;sensor_type;location;lat;lon;timestamp;pressure;altitude;pressure_sealevel;temperature;humidity
75455;BME280;64035;48.358;2.122;2023-05-07T00:01:00;100688.31;;;16.81;68.65
75455;BME280;64035;48.358;2.122;2023-05-07T00:02:03;100673.72;;;16.83;68.60
75455;BME280;64035;48.358;2.122;2023-05-07T00:03:12;100671.97;;;16.82;68.71
75455;BME280;64035;48.358;2.122;2023-05-07T00:04:18;100671.16;;;16.83;68.46
75455;BME280;64035;48.358;2.122;2023-05-07T00:05:21;100668.47;;;16.79;68.79
75455;BME280;64035;48.358;2.122;2023-05-07T00:06:24;100658.16;;;16.81;68.65
75455;BME280;64035;48.358;2.122;2023-05-07T00:07:28;100658.16;;;16.81;68.80
75455;BME280;64035;48.358;2.122;2023-05-07T00:08:31;100657.28;;;16.81;68.78
75455;BME280;64035;48.358;2.122;2023-05-07T00:09:35;100649.53;;;16.81;68.77
75455;BME280;64035;48.358;2.122;2023-05-07T00:10:41;100651.25;;;16.80;68.56
75455;BME280;64035;48.358;2.122;2023-05-07T00:11:45;100651.19;;;16.78;68.93
75455;BME280;64035;48.358;2.122;2023-05-07T00:12:48;100644.31;;;16.77;69.10
75455;BME280;64035;48.358;2.122;2023-05-07T00:13:51;100638.22;;;16.75;68.91
75455;BME280;64035;48.358;2.122;2023-05-07T00:14:54;100637.44;;;16.78;69.04
75455;BME280;64035;48.358;2.122;2023-05-07T00:15:58;100633.78;;;16.71;68.48
75455;BME280;64035;48.358;2.122;2023-05-07T00:17:01;100631.19;;;16.70;69.08
75455;BME280;64035;48.358;2.122;2023-05-07T00:18:04;100634.63;;;16.70;69.25
75455;BME280;64035;48.358;2.122;2023-05-07T00:19:08;100629.41;;;16.69;68.83
75455;BME280;64035;48.358;2.122;2023-05-07T00:20:11;100625.88;;;16.65;69.40
75455;BME280;64035;48.358;2.122;2023-05-07T00:21:14;100630.19;;;16.66;69.63
75455;BME280;64035;48.358;2.122;2023-05-07T00:22:20;100632.00;;;16.69;69.87
75455;BME280;64035;48.358;2.122;2023-05-07T00:23:23;100623.28;;;16.65;69.33
75455;BME280;64035;48.358;2.122;2023-05-07T00:24:26;100617.28;;;16.66;69.52
75455;BME280;64035;48.358;2.122;2023-05-07T00:25:29;100619.88;;;16.66;69.38
75455;BME280;64035;48.358;2.122;2023-05-07T00:26:35;100617.41;;;16.71;69.47
75455;BME280;64035;48.358;2.122;2023-05-07T00:27:38;100615.63;;;16.68;69.47
75455;BME280;64035;48.358;2.122;2023-05-07T00:28:42;100624.28;;;16.70;69.13
75455;BME280;64035;48.358;2.122;2023-05-07T00:29:45;100619.13;;;16.70;69.46
75455;BME280;64035;48.358;2.122;2023-05-07T00:30:53;100617.28;;;16.66;69.56
75455;BME280;64035;48.358;2.122;2023-05-07T00:31:56;100619.03;;;16.67;69.48
75455;BME280;64035;48.358;2.122;2023-05-07T00:32:59;100614.75;;;16.68;69.27
75455;BME280;64035;48.358;2.122;2023-05-07T00:34:02;100619.97;;;16.69;69.72
75455;BME280;64035;48.358;2.122;2023-05-07T00:35:06;100612.09;;;16.66;69.56
75455;BME280;64035;48.358;2.122;2023-05-07T00:36:12;100608.66;;;16.66;69.63
75455;BME280;64035;48.358;2.122;2023-05-07T00:37:15;100612.19;;;16.69;69.19
75455;BME280;64035;48.358;2.122;2023-05-07T00:38:18;100611.22;;;16.66;69.29
75455;BME280;64035;48.358;2.122;2023-05-07T00:39:30;100604.41;;;16.68;69.42
75455;BME280;64035;48.358;2.122;2023-05-07T00:40:36;100610.44;;;16.68;69.54
75455;BME280;64035;48.358;2.122;2023-05-07T00:41:39;100605.19;;;16.65;69.49
75455;BME280;64035;48.358;2.122;2023-05-07T00:42:43;100600.00;;;16.64;69.42
75455;BME280;64035;48.358;2.122;2023-05-07T00:43:52;100602.59;;;16.65;69.57
75455;BME280;64035;48.358;2.122;2023-05-07T00:44:56;100595.63;;;16.61;69.65
75455;BME280;64035;48.358;2.122;2023-05-07T00:45:58;100598.19;;;16.61;69.38
75455;BME280;64035;48.358;2.122;2023-05-07T00:47:04;100602.53;;;16.62;69.44
75455;BME280;64035;48.358;2.122;2023-05-07T00:48:08;100594.78;;;16.62;69.10
75455;BME280;64035;48.358;2.122;2023-05-07T00:49:11;100593.03;;;16.61;68.97
75455;BME280;64035;48.358;2.122;2023-05-07T00:50:15;100599.81;;;16.59;69.74
75455;BME280;64035;48.358;2.122;2023-05-07T00:51:18;100594.59;;;16.56;69.78
75455;BME280;64035;48.358;2.122;2023-05-07T00:52:23;100593.72;;;16.57;70.01
75455;BME280;64035;48.358;2.122;2023-05-07T00:53:28;100593.72;;;16.57;69.48
75455;BME280;64035;48.358;2.122;2023-05-07T00:54:32;100591.13;;;16.56;69.68
75455;BME280;64035;48.358;2.122;2023-05-07T00:55:36;100596.31;;;16.57;69.78
75455;BME280;64035;48.358;2.122;2023-05-07T00:56:40;100577.97;;;16.47;70.02
75455;BME280;64035;48.358;2.122;2023-05-07T00:57:43;100592.84;;;16.55;69.82
75455;BME280;64035;48.358;2.122;2023-05-07T00:58:48;100587.56;;;16.52;69.45
75455;BME280;64035;48.358;2.122;2023-05-07T00:59:51;100590.25;;;16.55;69.98
75455;BME280;64035;48.358;2.122;2023-05-07T01:00:55;100587.66;;;16.55;69.87
75455;BME280;64035;48.358;2.122;2023-05-07T01:01:58;100594.53;;;16.55;69.59
75455;BME280;64035;48.358;2.122;2023-05-07T01:03:02;100587.63;;;16.54;70.22
75455;BME280;64035;48.358;2.122;2023-05-07T01:04:05;100585.03;;;16.54;69.67
75455;BME280;64035;48.358;2.122;2023-05-07T01:05:11;100596.31;;;16.56;70.08
75455;BME280;64035;48.358;2.122;2023-05-07T01:06:15;100593.56;;;16.51;69.69
75455;BME280;64035;48.358;2.122;2023-05-07T01:07:19;100599.66;;;16.53;70.20
75455;BME280;64035;48.358;2.122;2023-05-07T01:08:23;100602.19;;;16.52;70.04
75455;BME280;64035;48.358;2.122;2023-05-07T01:09:29;100604.72;;;16.49;70.08
75455;BME280;64035;48.358;2.122;2023-05-07T01:10:32;100607.31;;;16.49;70.23
75455;BME280;64035;48.358;2.122;2023-05-07T01:11:36;100611.59;;;16.48;70.40
75455;BME280;64035;48.358;2.122;2023-05-07T01:12:39;100605.56;;;16.48;70.48
75455;BME280;64035;48.358;2.122;2023-05-07T01:13:46;100608.97;;;16.47;70.43
75455;BME280;64035;48.358;2.122;2023-05-07T01:14:49;100609.78;;;16.46;70.28
75455;BME280;64035;48.358;2.122;2023-05-07T01:15:53;100614.97;;;16.46;70.61
75455;BME280;64035;48.358;2.122;2023-05-07T01:16:56;100605.50;;;16.46;70.42
75455;BME280;64035;48.358;2.122;2023-05-07T01:18:01;100609.91;;;16.49;70.14
75455;BME280;64035;48.358;2.122;2023-05-07T01:19:09;100613.25;;;16.46;70.14
75455;BME280;64035;48.358;2.122;2023-05-07T01:20:17;100613.34;;;16.49;70.10
75455;BME280;64035;48.358;2.122;2023-05-07T01:21:26;100615.06;;;16.49;70.32
75455;BME280;64035;48.358;2.122;2023-05-07T01:22:37;100593.38;;;16.44;70.45
75455;BME280;64035;48.358;2.122;2023-05-07T01:23:41;100598.59;;;16.45;69.93
75455;BME280;64035;48.358;2.122;2023-05-07T01:24:44;100602.00;;;16.44;70.58
75455;BME280;64035;48.358;2.122;2023-05-07T01:25:53;100596.78;;;16.42;70.38
75455;BME280;64035;48.358;2.122;2023-05-07T01:26:58;100590.78;;;16.42;70.55
75455;BME280;64035;48.358;2.122;2023-05-07T01:28:01;100584.75;;;16.43;70.51
75455;BME280;64035;48.358;2.122;2023-05-07T01:29:08;100588.97;;;16.39;70.13
75455;BME280;64035;48.358;2.122;2023-05-07T01:30:11;100582.91;;;16.39;70.47
75455;BME280;64035;48.358;2.122;2023-05-07T01:31:18;100582.16;;;16.43;70.45
75455;BME280;64035;48.358;2.122;2023-05-07T01:32:31;100573.47;;;16.39;70.30
75455;BME280;64035;48.358;2.122;2023-05-07T01:33:37;100582.13;;;16.42;70.50
75455;BME280;64035;48.358;2.122;2023-05-07T01:34:41;100580.28;;;16.37;70.47
75455;BME280;64035;48.358;2.122;2023-05-07T01:35:50;100576.00;;;16.38;70.61
75455;BME280;64035;48.358;2.122;2023-05-07T01:36:55;100581.22;;;16.39;70.72
75455;BME280;64035;48.358;2.122;2023-05-07T01:38:00;100576.94;;;16.40;70.88
75455;BME280;64035;48.358;2.122;2023-05-07T01:39:07;100563.81;;;16.32;70.63
75455;BME280;64035;48.358;2.122;2023-05-07T01:40:11;100580.38;;;16.40;70.97
75455;BME280;64035;48.358;2.122;2023-05-07T01:41:15;100570.78;;;16.35;70.97
75455;BME280;64035;48.358;2.122;2023-05-07T01:42:18;100563.84;;;16.34;70.78
75455;BME280;64035;48.358;2.122;2023-05-07T01:43:21;100566.44;;;16.34;70.94
75455;BME280;64035;48.358;2.122;2023-05-07T01:44:25;100575.94;;;16.35;70.73
75455;BME280;64035;48.358;2.122;2023-05-07T01:45:30;100571.66;;;16.37;70.96
75455;BME280;64035;48.358;2.122;2023-05-07T01:46:35;100575.88;;;16.33;70.26
75455;BME280;64035;48.358;2.122;2023-05-07T01:47:38;100583.69;;;16.35;70.87
75455;BME280;64035;48.358;2.122;2023-05-07T01:48:42;100577.59;;;16.33;71.24
75455;BME280;64035;48.358;2.122;2023-05-07T01:49:48;100577.53;;;16.31;71.11
75455;BME280;64035;48.358;2.122;2023-05-07T01:50:52;100587.09;;;16.34;70.81
75455;BME280;64035;48.358;2.122;2023-05-07T01:51:55;100582.66;;;16.30;70.71
75455;BME280;64035;48.358;2.122;2023-05-07T01:52:58;100573.25;;;16.32;71.01
75455;BME280;64035;48.358;2.122;2023-05-07T01:54:06;100575.84;;;16.32;70.48
75455;BME280;64035;48.358;2.122;2023-05-07T01:55:11;100585.28;;;16.31;71.34
75455;BME280;64035;48.358;2.122;2023-05-07T01:56:14;100581.94;;;16.35;70.73
75455;BME280;64035;48.358;2.122;2023-05-07T01:57:21;100588.75;;;16.32;71.05
75455;BME280;64035;48.358;2.122;2023-05-07T01:58:27;100584.47;;;16.32;70.84
75455;BME280;64035;48.358;2.122;2023-05-07T01:59:30;100581.88;;;16.32;71.01
75455;BME280;64035;48.358;2.122;2023-05-07T02:00:37;100587.94;;;16.33;70.56
75455;BME280;64035;48.358;2.122;2023-05-07T02:01:46;100583.59;;;16.32;70.89
75455;BME280;64035;48.358;2.122;2023-05-07T02:02:57;100592.16;;;16.31;70.86
75455;BME280;64035;48.358;2.122;2023-05-07T02:04:11;100579.19;;;16.29;71.00
75455;BME280;64035;48.358;2.122;2023-05-07T02:05:14;100593.03;;;16.31;71.24
75455;BME280;64035;48.358;2.122;2023-05-07T02:06:17;100592.16;;;16.31;70.75
75455;BME280;64035;48.358;2.122;2023-05-07T02:07:37;100586.94;;;16.28;71.00
75455;BME280;64035;48.358;2.122;2023-05-07T02:08:40;100582.59;;;16.27;70.56
75455;BME280;64035;48.358;2.122;2023-05-07T02:09:46;100594.63;;;16.26;71.41
75455;BME280;64035;48.358;2.122;2023-05-07T02:10:49;100590.31;;;16.25;70.81
75455;BME280;64035;48.358;2.122;2023-05-07T02:11:54;100598.94;;;16.26;71.44
75455;BME280;64035;48.358;2.122;2023-05-07T02:12:58;100598.88;;;16.24;71.38
75455;BME280;64035;48.358;2.122;2023-05-07T02:14:04;100604.13;;;16.27;71.16
75455;BME280;64035;48.358;2.122;2023-05-07T02:15:07;100605.81;;;16.25;70.89
75455;BME280;64035;48.358;2.122;2023-05-07T02:16:12;100612.72;;;16.26;71.60
75455;BME280;64035;48.358;2.122;2023-05-07T02:17:20;100603.09;;;16.21;71.27
75455;BME280;64035;48.358;2.122;2023-05-07T02:18:23;100614.31;;;16.23;71.76
75455;BME280;64035;48.358;2.122;2023-05-07T02:19:28;100611.75;;;16.23;71.27
75455;BME280;64035;48.358;2.122;2023-05-07T02:20:34;100619.53;;;16.24;71.37
75455;BME280;64035;48.358;2.122;2023-05-07T02:21:37;100610.84;;;16.21;71.70
75455;BME280;64035;48.358;2.122;2023-05-07T02:22:43;100616.00;;;16.21;71.68
75455;BME280;64035;48.358;2.122;2023-05-07T02:23:46;100609.09;;;16.21;71.37
75455;BME280;64035;48.358;2.122;2023-05-07T02:24:50;100613.50;;;16.24;71.39
75455;BME280;64035;48.358;2.122;2023-05-07T02:25:56;100610.00;;;16.22;71.21
75455;BME280;64035;48.358;2.122;2023-05-07T02:26:59;100612.56;;;16.20;71.40
75455;BME280;64035;48.358;2.122;2023-05-07T02:28:09;100610.75;;;16.18;71.16
75455;BME280;64035;48.358;2.122;2023-05-07T02:29:41;100627.28;;;16.24;71.20
75455;BME280;64035;48.358;2.122;2023-05-07T02:30:44;100619.53;;;16.24;71.15
75455;BME280;64035;48.358;2.122;2023-05-07T02:31:47;100626.41;;;16.24;71.43
75455;BME280;64035;48.358;2.122;2023-05-07T02:32:55;100619.44;;;16.21;71.39
75455;BME280;64035;48.358;2.122;2023-05-07T02:33:59;100620.25;;;16.19;71.24
75455;BME280;64035;48.358;2.122;2023-05-07T02:35:03;100631.47;;;16.19;71.50
75455;BME280;64035;48.358;2.122;2023-05-07T02:36:10;100634.09;;;16.21;71.46
75455;BME280;64035;48.358;2.122;2023-05-07T02:37:35;100628.88;;;16.19;71.78
75455;BME280;64035;48.358;2.122;2023-05-07T02:38:38;100628.88;;;16.19;71.87
75455;BME280;64035;48.358;2.122;2023-05-07T02:39:42;100634.91;;;16.20;72.00
75455;BME280;64035;48.358;2.122;2023-05-07T02:40:45;100637.50;;;16.20;72.14
75455;BME280;64035;48.358;2.122;2023-05-07T02:41:48;100640.91;;;16.19;71.96
75455;BME280;64035;48.358;2.122;2023-05-07T02:42:51;100646.09;;;16.19;71.58
75455;BME280;64035;48.358;2.122;2023-05-07T02:43:54;100637.50;;;16.20;71.53
75455;BME280;64035;48.358;2.122;2023-05-07T02:45:01;100639.16;;;16.18;71.38
75455;BME280;64035;48.358;2.122;2023-05-07T02:46:07;100638.28;;;16.17;71.63
75455;BME280;64035;48.358;2.122;2023-05-07T02:47:15;100640.91;;;16.19;71.40
75455;BME280;64035;48.358;2.122;2023-05-07T02:48:22;100639.22;;;16.19;71.85
75455;BME280;64035;48.358;2.122;2023-05-07T02:49:27;100641.75;;;16.18;71.24
75455;BME280;64035;48.358;2.122;2023-05-07T02:50:31;100635.75;;;16.19;72.05
75455;BME280;64035;48.358;2.122;2023-05-07T02:51:35;100640.91;;;16.19;71.54
75455;BME280;64035;48.358;2.122;2023-05-07T02:52:41;100638.34;;;16.19;71.40
75455;BME280;64035;48.358;2.122;2023-05-07T02:53:44;100632.25;;;16.17;71.55
75455;BME280;64035;48.358;2.122;2023-05-07T02:54:50;100634.09;;;16.21;71.86
75455;BME280;64035;48.358;2.122;2023-05-07T02:55:57;100634.94;;;16.21;71.47
75455;BME280;64035;48.358;2.122;2023-05-07T02:57:00;100633.16;;;16.19;71.50
75455;BME280;64035;48.358;2.122;2023-05-07T02:58:07;100629.72;;;16.18;71.93
75455;BME280;64035;48.358;2.122;2023-05-07T02:59:13;100628.00;;;16.19;71.87
75455;BME280;64035;48.358;2.122;2023-05-07T03:00:18;100629.66;;;16.17;71.92
75455;BME280;64035;48.358;2.122;2023-05-07T03:01:33;100634.81;;;16.17;71.94
75455;BME280;64035;48.358;2.122;2023-05-07T03:02:39;100647.72;;;16.17;71.85
75455;BME280;64035;48.358;2.122;2023-05-07T03:03:45;100645.97;;;16.16;72.00
75455;BME280;64035;48.358;2.122;2023-05-07T03:04:49;100650.25;;;16.15;72.03
75455;BME280;64035;48.358;2.122;2023-05-07T03:05:52;100650.25;;;16.15;72.21
75455;BME280;64035;48.358;2.122;2023-05-07T03:06:55;100647.63;;;16.14;72.06
75455;BME280;64035;48.358;2.122;2023-05-07T03:07:58;100659.72;;;16.15;72.24
75455;BME280;64035;48.358;2.122;2023-05-07T03:09:00;100652.72;;;16.11;72.36
75455;BME280;64035;48.358;2.122;2023-05-07T03:10:04;100657.06;;;16.12;72.24
75455;BME280;64035;48.358;2.122;2023-05-07T03:11:07;100664.81;;;16.12;72.10
75455;BME280;64035;48.358;2.122;2023-05-07T03:12:13;100657.06;;;16.12;71.99
75455;BME280;64035;48.358;2.122;2023-05-07T03:13:16;100658.63;;;16.07;72.21
75455;BME280;64035;48.358;2.122;2023-05-07T03:14:20;100654.47;;;16.12;72.60
75455;BME280;64035;48.358;2.122;2023-05-07T03:15:24;100659.59;;;16.10;72.44
75455;BME280;64035;48.358;2.122;2023-05-07T03:16:27;100663.13;;;16.12;72.20
75455;BME280;64035;48.358;2.122;2023-05-07T03:17:30;100655.38;;;16.14;72.37
75455;BME280;64035;48.358;2.122;2023-05-07T03:18:34;100656.25;;;16.13;72.18
75455;BME280;64035;48.358;2.122;2023-05-07T03:19:37;100649.16;;;16.07;72.05
75455;BME280;64035;48.358;2.122;2023-05-07T03:20:40;100670.03;;;16.13;72.49
75455;BME280;64035;48.358;2.122;2023-05-07T03:21:43;100664.75;;;16.10;72.41
75455;BME280;64035;48.358;2.122;2023-05-07T03:22:46;100664.81;;;16.12;71.95
75455;BME280;64035;48.358;2.122;2023-05-07T03:23:49;100665.63;;;16.11;72.18
75455;BME280;64035;48.358;2.122;2023-05-07T03:24:52;100661.31;;;16.10;72.10
75455;BME280;64035;48.358;2.122;2023-05-07T03:25:55;100656.91;;;16.07;72.36
75455;BME280;64035;48.358;2.122;2023-05-07T03:26:58;100663.00;;;16.09;72.58
75455;BME280;64035;48.358;2.122;2023-05-07T03:28:01;100665.59;;;16.09;72.89
75455;BME280;64035;48.358;2.122;2023-05-07T03:29:13;100656.97;;;16.09;72.94
75455;BME280;64035;48.358;2.122;2023-05-07T03:30:16;100654.31;;;16.06;72.49
75455;BME280;64035;48.358;2.122;2023-05-07T03:31:20;100656.91;;;16.07;72.66
75455;BME280;64035;48.358;2.122;2023-05-07T03:32:26;100657.78;;;16.06;72.50
75455;BME280;64035;48.358;2.122;2023-05-07T03:33:29;100655.22;;;16.08;72.42
75455;BME280;64035;48.358;2.122;2023-05-07T03:34:33;100661.19;;;16.07;72.37
75455;BME280;64035;48.358;2.122;2023-05-07T03:35:36;100667.25;;;16.07;72.56
75455;BME280;64035;48.358;2.122;2023-05-07T03:36:39;100666.47;;;16.10;72.82
75455;BME280;64035;48.358;2.122;2023-05-07T03:37:47;100656.91;;;16.07;72.45
75455;BME280;64035;48.358;2.122;2023-05-07T03:38:50;100662.94;;;16.08;72.64
75455;BME280;64035;48.358;2.122;2023-05-07T03:39:56;100665.53;;;16.08;72.75
75455;BME280;64035;48.358;2.122;2023-05-07T03:41:00;100661.25;;;16.08;72.61
75455;BME280;64035;48.358;2.122;2023-05-07T03:42:03;100667.22;;;16.06;72.63
75455;BME280;64035;48.358;2.122;2023-05-07T03:43:07;100665.47;;;16.05;72.58
75455;BME280;64035;48.358;2.122;2023-05-07T03:44:13;100655.09;;;16.03;72.94
75455;BME280;64035;48.358;2.122;2023-05-07T03:45:19;100663.78;;;16.07;72.42
75455;BME280;64035;48.358;2.122;2023-05-07T03:46:28;100662.06;;;16.07;72.42
75455;BME280;64035;48.358;2.122;2023-05-07T03:47:31;100666.34;;;16.07;72.54
75455;BME280;64035;48.358;2.122;2023-05-07T03:48:34;100665.53;;;16.06;72.36
75455;BME280;64035;48.358;2.122;2023-05-07T03:49:39;100668.09;;;16.06;72.66
75455;BME280;64035;48.358;2.122;2023-05-07T03:50:42;100668.94;;;16.05;72.52
75455;BME280;64035;48.358;2.122;2023-05-07T03:51:45;100660.31;;;16.05;72.79
75455;BME280;64035;48.358;2.122;2023-05-07T03:52:48;100672.38;;;16.06;72.97
75455;BME280;64035;48.358;2.122;2023-05-07T03:53:54;100664.66;;;16.07;73.26
75455;BME280;64035;48.358;2.122;2023-05-07T03:54:58;100660.31;;;16.05;72.59
75455;BME280;64035;48.358;2.122;2023-05-07T03:56:02;100659.41;;;16.04;72.42
75455;BME280;64035;48.358;2.122;2023-05-07T03:58:36;100661.19;;;16.05;73.19
75455;BME280;64035;48.358;2.122;2023-05-07T03:59:43;100662.00;;;16.04;73.33
75455;BME280;64035;48.358;2.122;2023-05-07T04:00:46;100668.78;;;16.00;73.08
75455;BME280;64035;48.358;2.122;2023-05-07T04:02:00;100661.84;;;15.99;72.93
75455;BME280;64035;48.358;2.122;2023-05-07T04:03:06;100666.28;;;16.04;72.83
75455;BME280;64035;48.358;2.122;2023-05-07T04:04:09;100667.13;;;16.02;73.14
75455;BME280;64035;48.358;2.122;2023-05-07T04:05:14;100665.34;;;16.01;73.08
75455;BME280;64035;48.358;2.122;2023-05-07T04:06:17;100658.38;;;15.97;73.30
75455;BME280;64035;48.358;2.122;2023-05-07T04:07:23;100661.00;;;15.99;72.92
75455;BME280;64035;48.358;2.122;2023-05-07T04:08:28;100660.94;;;15.97;72.83
75455;BME280;64035;48.358;2.122;2023-05-07T04:09:31;100664.44;;;15.99;72.80
75455;BME280;64035;48.358;2.122;2023-05-07T04:10:34;100652.28;;;15.95;73.14
75455;BME280;64035;48.358;2.122;2023-05-07T04:11:42;100662.72;;;15.98;72.89
75455;BME280;64035;48.358;2.122;2023-05-07T04:12:49;100661.03;;;16.00;72.90
75455;BME280;64035;48.358;2.122;2023-05-07T04:13:57;100663.66;;;16.02;72.84
75455;BME280;64035;48.358;2.122;2023-05-07T04:15:00;100655.84;;;16.00;72.91
75455;BME280;64035;48.358;2.122;2023-05-07T04:16:05;100663.72;;;16.04;73.15
75455;BME280;64035;48.358;2.122;2023-05-07T04:17:10;100663.59;;;16.00;73.05
75455;BME280;64035;48.358;2.122;2023-05-07T04:18:15;100667.06;;;16.01;72.79
75455;BME280;64035;48.358;2.122;2023-05-07T04:19:22;100664.44;;;15.99;73.09
75455;BME280;64035;48.358;2.122;2023-05-07T04:20:29;100667.88;;;15.98;73.35
75455;BME280;64035;48.358;2.122;2023-05-07T04:21:58;100659.19;;;15.96;73.13
75455;BME280;64035;48.358;2.122;2023-05-07T04:23:02;100667.88;;;15.98;73.40
75455;BME280;64035;48.358;2.122;2023-05-07T04:24:06;100658.25;;;15.94;73.93
75455;BME280;64035;48.358;2.122;2023-05-07T04:25:10;100670.41;;;15.97;73.58
75455;BME280;64035;48.358;2.122;2023-05-07T04:26:15;100671.28;;;15.97;73.30
75455;BME280;64035;48.358;2.122;2023-05-07T04:27:24;100673.84;;;15.97;72.91
75455;BME280;64035;48.358;2.122;2023-05-07T04:28:28;100669.53;;;15.96;72.94
75455;BME280;64035;48.358;2.122;2023-05-07T04:29:31;100675.50;;;15.95;73.28
75455;BME280;64035;48.358;2.122;2023-05-07T04:30:35;100684.06;;;15.94;73.59
75455;BME280;64035;48.358;2.122;2023-05-07T04:31:40;100690.06;;;15.93;73.44
75455;BME280;64035;48.358;2.122;2023-05-07T04:32:43;100687.50;;;15.93;73.44
75455;BME280;64035;48.358;2.122;2023-05-07T04:33:47;100690.06;;;15.93;73.72
75455;BME280;64035;48.358;2.122;2023-05-07T04:34:57;100684.84;;;15.90;73.11
75455;BME280;64035;48.358;2.122;2023-05-07T04:36:01;100685.72;;;15.92;73.68
75455;BME280;64035;48.358;2.122;2023-05-07T04:37:06;100684.03;;;15.93;73.56
75455;BME280;64035;48.358;2.122;2023-05-07T04:38:18;100689.16;;;15.91;73.56
75455;BME280;64035;48.358;2.122;2023-05-07T04:39:22;100688.28;;;15.91;73.47
75455;BME280;64035;48.358;2.122;2023-05-07T04:40:25;100693.47;;;15.92;73.32
75455;BME280;64035;48.358;2.122;2023-05-07T04:41:28;100690.91;;;15.92;73.22
75455;BME280;64035;48.358;2.122;2023-05-07T04:42:31;100683.94;;;15.90;74.17
75455;BME280;64035;48.358;2.122;2023-05-07T04:43:36;100683.94;;;15.90;73.29
75455;BME280;64035;48.358;2.122;2023-05-07T04:44:40;100681.31;;;15.88;73.95
75455;BME280;64035;48.358;2.122;2023-05-07T04:45:45;100681.38;;;15.90;73.71
75455;BME280;64035;48.358;2.122;2023-05-07T04:46:51;100684.00;;;15.91;73.68
75455;BME280;64035;48.358;2.122;2023-05-07T04:47:54;100689.13;;;15.90;73.55
75455;BME280;64035;48.358;2.122;2023-05-07T04:48:57;100692.63;;;15.92;73.35
75455;BME280;64035;48.358;2.122;2023-05-07T04:50:00;100688.25;;;15.89;73.42
75455;BME280;64035;48.358;2.122;2023-05-07T04:51:03;100687.31;;;15.87;74.05
75455;BME280;64035;48.358;2.122;2023-05-07T04:52:06;100688.19;;;15.88;74.26
75455;BME280;64035;48.358;2.122;2023-05-07T04:53:09;100692.47;;;15.87;73.56
75455;BME280;64035;48.358;2.122;2023-05-07T04:54:12;100691.66;;;15.88;73.89
75455;BME280;64035;48.358;2.122;2023-05-07T04:55:20;100692.53;;;15.89;73.64
75455;BME280;64035;48.358;2.122;2023-05-07T04:56:23;100694.34;;;15.91;73.81
75455;BME280;64035;48.358;2.122;2023-05-07T04:57:27;100701.22;;;15.92;73.70
75455;BME280;64035;48.358;2.122;2023-05-07T04:58:30;100698.63;;;15.91;73.53
75455;BME280;64035;48.358;2.122;2023-05-07T04:59:34;100699.38;;;15.88;73.79
75455;BME280;64035;48.358;2.122;2023-05-07T05:00:38;100705.38;;;15.87;74.00
75455;BME280;64035;48.358;2.122;2023-05-07T05:01:45;100709.66;;;15.87;74.04
75455;BME280;64035;48.358;2.122;2023-05-07T05:02:48;100713.13;;;15.87;73.84
75455;BME280;64035;48.358;2.122;2023-05-07T05:03:54;100711.31;;;15.85;73.87
75455;BME280;64035;48.358;2.122;2023-05-07T05:04:58;100710.53;;;15.87;73.71
75455;BME280;64035;48.358;2.122;2023-05-07T05:06:05;100705.38;;;15.87;73.80
75455;BME280;64035;48.358;2.122;2023-05-07T05:07:10;100709.59;;;15.85;73.51
75455;BME280;64035;48.358;2.122;2023-05-07T05:08:16;100710.47;;;15.86;74.48
75455;BME280;64035;48.358;2.122;2023-05-07T05:09:20;100710.47;;;15.84;74.17
75455;BME280;64035;48.358;2.122;2023-05-07T05:10:22;100713.06;;;15.86;74.36
75455;BME280;64035;48.358;2.122;2023-05-07T05:11:27;100707.97;;;15.87;74.18
75455;BME280;64035;48.358;2.122;2023-05-07T05:12:31;100698.50;;;15.88;74.01
75455;BME280;64035;48.358;2.122;2023-05-07T05:13:36;100702.72;;;15.84;74.33
75455;BME280;64035;48.358;2.122;2023-05-07T05:14:46;100706.31;;;15.89;74.08
75455;BME280;64035;48.358;2.122;2023-05-07T05:15:52;100713.22;;;15.90;74.10
75455;BME280;64035;48.358;2.122;2023-05-07T05:16:58;100699.38;;;15.88;73.94
75455;BME280;64035;48.358;2.122;2023-05-07T05:18:04;100708.00;;;15.89;73.91
75455;BME280;64035;48.358;2.122;2023-05-07T05:19:07;100711.41;;;15.88;73.94
75455;BME280;64035;48.358;2.122;2023-05-07T05:20:15;100702.78;;;15.87;73.88
75455;BME280;64035;48.358;2.122;2023-05-07T05:21:21;100715.00;;;15.91;74.06
75455;BME280;64035;48.358;2.122;2023-05-07T05:22:28;100709.78;;;15.90;73.99
75455;BME280;64035;48.358;2.122;2023-05-07T05:23:33;100709.81;;;15.91;74.07
75455;BME280;64035;48.358;2.122;2023-05-07T05:24:36;100712.44;;;15.93;74.34
75455;BME280;64035;48.358;2.122;2023-05-07T05:25:39;100716.75;;;15.94;73.97
75455;BME280;64035;48.358;2.122;2023-05-07T05:26:44;100718.47;;;15.93;73.84
75455;BME280;64035;48.358;2.122;2023-05-07T05:27:47;100714.13;;;15.92;74.17
75455;BME280;64035;48.358;2.122;2023-05-07T05:28:50;100707.25;;;15.91;74.15
75455;BME280;64035;48.358;2.122;2023-05-07T05:29:56;100719.34;;;15.94;74.20
75455;BME280;64035;48.358;2.122;2023-05-07T05:30:59;100719.28;;;15.91;74.01
75455;BME280;64035;48.358;2.122;2023-05-07T05:32:05;100721.03;;;15.92;74.29
75455;BME280;64035;48.358;2.122;2023-05-07T05:33:08;100719.28;;;15.92;74.34
75455;BME280;64035;48.358;2.122;2023-05-07T05:34:11;100719.28;;;15.92;74.21
75455;BME280;64035;48.358;2.122;2023-05-07T05:35:18;100722.69;;;15.90;74.01
75455;BME280;64035;48.358;2.122;2023-05-07T05:36:21;100727.84;;;15.90;73.97
75455;BME280;64035;48.358;2.122;2023-05-07T05:37:26;100731.34;;;15.92;74.05
75455;BME280;64035;48.358;2.122;2023-05-07T05:38:31;100731.38;;;15.93;74.37
75455;BME280;64035;48.358;2.122;2023-05-07T05:39:34;100733.97;;;15.93;74.13
75455;BME280;64035;48.358;2.122;2023-05-07T05:40:37;100735.66;;;15.93;74.28
75455;BME280;64035;48.358;2.122;2023-05-07T05:41:42;100731.34;;;15.92;74.00